sensor_id;sensor_type;location;lat;lon;timestamp;P1;durP1;ratioP1;P2;durP2;ratioP2
14088;SDS011;7120;52.890;6.040;2023-04-27T00:00:56;19.57;;;11.87;;
14088;SDS011;7120;52.890;6.040;2023-04-27T00:03:22;24.10;;;14.20;;
14088;SDS011;7120;52.890;6.040;2023-04-27T00:05:47;18.60;;;12.87;;
14088;SDS011;7120;52.890;6.040;2023-04-27T00:08:12;17.83;;;12.23;;
14088;SDS011;7120;52.890;6.040;2023-04-27T00:10:38;22.87;;;13.90;;
14088;SDS011;7120;52.890;6.040;2023-04-27T00:13:03;16.93;;;11.53;;
14088;SDS011;7120;52.890;6.040;2023-04-27T00:15:29;18.87;;;11.60;;
14088;SDS011;7120;52.890;6.040;2023-04-27T00:17:54;16.63;;;13.07;;
14088;SDS011;7120;52.890;6.040;2023-04-27T00:20:21;17.80;;;13.20;;
14088;SDS011;7120;52.890;6.040;2023-04-27T00:22:46;16.27;;;11.37;;
14088;SDS011;7120;52.890;6.040;2023-04-27T00:25:12;15.90;;;10.63;;
14088;SDS011;7120;52.890;6.040;2023-04-27T00:27:37;15.97;;;9.57;;
14088;SDS011;7120;52.890;6.040;2023-04-27T00:30:03;15.13;;;9.23;;
14088;SDS011;7120;52.890;6.040;2023-04-27T00:32:29;19.60;;;9.60;;
14088;SDS011;7120;52.890;6.040;2023-04-27T00:34:54;14.47;;;9.63;;
14088;SDS011;7120;52.890;6.040;2023-04-27T00:37:20;15.30;;;9.53;;
14088;SDS011;7120;52.890;6.040;2023-04-27T00:39:45;17.23;;;9.27;;
14088;SDS011;7120;52.890;6.040;2023-04-27T00:42:11;16.73;;;9.53;;
14088;SDS011;7120;52.890;6.040;2023-04-27T00:44:40;18.27;;;9.70;;
14088;SDS011;7120;52.890;6.040;2023-04-27T00:47:05;19.87;;;9.83;;
14088;SDS011;7120;52.890;6.040;2023-04-27T00:49:31;17.80;;;8.90;;
14088;SDS011;7120;52.890;6.040;2023-04-27T00:51:56;18.23;;;8.53;;
14088;SDS011;7120;52.890;6.040;2023-04-27T00:54:22;17.00;;;8.63;;
14088;SDS011;7120;52.890;6.040;2023-04-27T00:56:48;13.97;;;8.07;;
14088;SDS011;7120;52.890;6.040;2023-04-27T00:59:15;17.53;;;8.73;;
14088;SDS011;7120;52.890;6.040;2023-04-27T01:01:40;15.10;;;8.17;;
14088;SDS011;7120;52.890;6.040;2023-04-27T01:04:06;18.43;;;8.53;;
14088;SDS011;7120;52.890;6.040;2023-04-27T01:06:31;17.43;;;9.00;;
14088;SDS011;7120;52.890;6.040;2023-04-27T01:08:57;14.77;;;8.43;;
14088;SDS011;7120;52.890;6.040;2023-04-27T01:11:22;13.73;;;8.70;;
14088;SDS011;7120;52.890;6.040;2023-04-27T01:13:48;13.30;;;8.20;;
14088;SDS011;7120;52.890;6.040;2023-04-27T01:16:13;15.20;;;8.27;;
14088;SDS011;7120;52.890;6.040;2023-04-27T01:18:38;17.40;;;7.87;;
14088;SDS011;7120;52.890;6.040;2023-04-27T01:21:06;19.17;;;8.03;;
14088;SDS011;7120;52.890;6.040;2023-04-27T01:23:32;19.50;;;8.13;;
14088;SDS011;7120;52.890;6.040;2023-04-27T01:25:57;16.27;;;8.17;;
14088;SDS011;7120;52.890;6.040;2023-04-27T01:28:22;15.37;;;8.13;;
14088;SDS011;7120;52.890;6.040;2023-04-27T01:30:48;17.50;;;7.90;;
14088;SDS011;7120;52.890;6.040;2023-04-27T01:33:13;17.90;;;8.17;;
14088;SDS011;7120;52.890;6.040;2023-04-27T01:35:38;16.80;;;8.20;;
14088;SDS011;7120;52.890;6.040;2023-04-27T01:38:04;19.27;;;8.83;;
14088;SDS011;7120;52.890;6.040;2023-04-27T01:40:29;13.87;;;7.13;;
14088;SDS011;7120;52.890;6.040;2023-04-27T01:42:55;13.67;;;7.57;;
14088;SDS011;7120;52.890;6.040;2023-04-27T01:45:20;12.77;;;7.50;;
14088;SDS011;7120;52.890;6.040;2023-04-27T01:47:45;11.20;;;6.77;;
14088;SDS011;7120;52.890;6.040;2023-04-27T01:50:11;11.90;;;6.23;;
14088;SDS011;7120;52.890;6.040;2023-04-27T01:52:36;7.60;;;4.70;;
14088;SDS011;7120;52.890;6.040;2023-04-27T01:55:02;7.67;;;5.23;;
14088;SDS011;7120;52.890;6.040;2023-04-27T01:57:27;7.67;;;4.70;;
14088;SDS011;7120;52.890;6.040;2023-04-27T01:59:52;6.83;;;4.17;;
14088;SDS011;7120;52.890;6.040;2023-04-27T02:02:18;11.30;;;4.83;;
14088;SDS011;7120;52.890;6.040;2023-04-27T02:04:43;7.03;;;4.43;;
14088;SDS011;7120;52.890;6.040;2023-04-27T02:07:09;9.57;;;5.13;;
14088;SDS011;7120;52.890;6.040;2023-04-27T02:09:35;7.63;;;4.70;;
14088;SDS011;7120;52.890;6.040;2023-04-27T02:12:00;8.47;;;5.27;;
14088;SDS011;7120;52.890;6.040;2023-04-27T02:14:26;9.00;;;4.93;;
14088;SDS011;7120;52.890;6.040;2023-04-27T02:16:51;8.37;;;5.23;;
14088;SDS011;7120;52.890;6.040;2023-04-27T02:19:17;7.23;;;5.10;;
14088;SDS011;7120;52.890;6.040;2023-04-27T02:21:42;6.23;;;4.07;;
14088;SDS011;7120;52.890;6.040;2023-04-27T02:24:08;6.23;;;4.17;;
14088;SDS011;7120;52.890;6.040;2023-04-27T02:26:33;8.00;;;4.37;;
14088;SDS011;7120;52.890;6.040;2023-04-27T02:28:59;8.47;;;4.83;;
14088;SDS011;7120;52.890;6.040;2023-04-27T02:31:25;6.37;;;4.17;;
14088;SDS011;7120;52.890;6.040;2023-04-27T02:33:50;6.10;;;4.00;;
14088;SDS011;7120;52.890;6.040;2023-04-27T02:36:16;8.17;;;4.33;;
14088;SDS011;7120;52.890;6.040;2023-04-27T02:38:41;7.40;;;4.50;;
14088;SDS011;7120;52.890;6.040;2023-04-27T02:41:07;10.80;;;5.47;;
14088;SDS011;7120;52.890;6.040;2023-04-27T02:43:32;7.70;;;5.43;;
14088;SDS011;7120;52.890;6.040;2023-04-27T02:46:01;7.47;;;5.20;;
14088;SDS011;7120;52.890;6.040;2023-04-27T02:48:29;9.17;;;6.07;;
14088;SDS011;7120;52.890;6.040;2023-04-27T02:50:55;10.43;;;6.00;;
14088;SDS011;7120;52.890;6.040;2023-04-27T02:53:21;7.77;;;5.90;;
14088;SDS011;7120;52.890;6.040;2023-04-27T02:55:46;9.77;;;6.40;;
14088;SDS011;7120;52.890;6.040;2023-04-27T02:58:12;10.30;;;5.63;;
14088;SDS011;7120;52.890;6.040;2023-04-27T03:00:38;14.87;;;5.83;;
14088;SDS011;7120;52.890;6.040;2023-04-27T03:03:05;8.97;;;6.27;;
14088;SDS011;7120;52.890;6.040;2023-04-27T03:05:31;15.67;;;7.10;;
14088;SDS011;7120;52.890;6.040;2023-04-27T03:07:57;10.63;;;6.23;;
14088;SDS011;7120;52.890;6.040;2023-04-27T03:10:22;13.03;;;6.70;;
14088;SDS011;7120;52.890;6.040;2023-04-27T03:12:47;14.97;;;7.10;;
14088;SDS011;7120;52.890;6.040;2023-04-27T03:15:12;15.60;;;7.57;;
14088;SDS011;7120;52.890;6.040;2023-04-27T03:17:38;12.27;;;8.13;;
14088;SDS011;7120;52.890;6.040;2023-04-27T03:20:03;19.37;;;8.70;;
14088;SDS011;7120;52.890;6.040;2023-04-27T03:22:33;16.73;;;9.20;;
14088;SDS011;7120;52.890;6.040;2023-04-27T03:24:58;15.80;;;8.60;;
14088;SDS011;7120;52.890;6.040;2023-04-27T03:27:24;12.27;;;7.63;;
14088;SDS011;7120;52.890;6.040;2023-04-27T03:29:50;14.83;;;8.17;;
14088;SDS011;7120;52.890;6.040;2023-04-27T03:32:17;15.07;;;8.17;;
14088;SDS011;7120;52.890;6.040;2023-04-27T03:34:42;13.47;;;8.47;;
14088;SDS011;7120;52.890;6.040;2023-04-27T03:37:08;15.67;;;8.40;;
14088;SDS011;7120;52.890;6.040;2023-04-27T03:39:33;17.63;;;8.70;;
14088;SDS011;7120;52.890;6.040;2023-04-27T03:41:59;12.90;;;8.10;;
14088;SDS011;7120;52.890;6.040;2023-04-27T03:44:24;16.50;;;8.63;;
14088;SDS011;7120;52.890;6.040;2023-04-27T03:46:49;14.93;;;8.83;;
14088;SDS011;7120;52.890;6.040;2023-04-27T03:49:15;15.93;;;9.33;;
14088;SDS011;7120;52.890;6.040;2023-04-27T03:51:40;16.07;;;9.20;;
14088;SDS011;7120;52.890;6.040;2023-04-27T03:54:06;16.03;;;8.73;;
14088;SDS011;7120;52.890;6.040;2023-04-27T03:56:31;21.23;;;8.70;;
14088;SDS011;7120;52.890;6.040;2023-04-27T03:58:57;19.10;;;8.80;;
14088;SDS011;7120;52.890;6.040;2023-04-27T04:01:22;19.73;;;8.87;;
14088;SDS011;7120;52.890;6.040;2023-04-27T04:03:48;16.70;;;9.20;;
14088;SDS011;7120;52.890;6.040;2023-04-27T04:06:15;16.50;;;9.93;;
14088;SDS011;7120;52.890;6.040;2023-04-27T04:08:40;17.63;;;9.40;;
14088;SDS011;7120;52.890;6.040;2023-04-27T04:11:06;14.20;;;8.73;;
14088;SDS011;7120;52.890;6.040;2023-04-27T04:13:31;18.43;;;9.67;;
14088;SDS011;7120;52.890;6.040;2023-04-27T04:16:03;13.40;;;8.97;;
14088;SDS011;7120;52.890;6.040;2023-04-27T04:18:30;15.37;;;8.77;;
14088;SDS011;7120;52.890;6.040;2023-04-27T04:20:56;13.83;;;8.23;;
14088;SDS011;7120;52.890;6.040;2023-04-27T04:23:21;14.43;;;8.17;;
14088;SDS011;7120;52.890;6.040;2023-04-27T04:25:46;15.87;;;8.90;;
14088;SDS011;7120;52.890;6.040;2023-04-27T04:28:13;16.70;;;7.97;;
14088;SDS011;7120;52.890;6.040;2023-04-27T04:30:38;16.23;;;7.87;;
14088;SDS011;7120;52.890;6.040;2023-04-27T04:33:04;15.47;;;8.33;;
14088;SDS011;7120;52.890;6.040;2023-04-27T04:35:29;15.07;;;8.13;;
14088;SDS011;7120;52.890;6.040;2023-04-27T04:37:57;15.33;;;9.10;;
14088;SDS011;7120;52.890;6.040;2023-04-27T04:40:23;18.60;;;8.70;;
14088;SDS011;7120;52.890;6.040;2023-04-27T04:42:48;12.10;;;8.53;;
14088;SDS011;7120;52.890;6.040;2023-04-27T04:45:14;13.13;;;8.13;;
14088;SDS011;7120;52.890;6.040;2023-04-27T04:47:39;16.87;;;8.53;;
14088;SDS011;7120;52.890;6.040;2023-04-27T04:50:05;20.30;;;8.50;;
14088;SDS011;7120;52.890;6.040;2023-04-27T04:52:32;14.00;;;8.37;;
14088;SDS011;7120;52.890;6.040;2023-04-27T04:54:58;16.67;;;8.70;;
14088;SDS011;7120;52.890;6.040;2023-04-27T04:57:23;15.33;;;8.43;;
14088;SDS011;7120;52.890;6.040;2023-04-27T04:59:48;21.73;;;9.23;;
14088;SDS011;7120;52.890;6.040;2023-04-27T05:02:14;20.50;;;8.90;;
14088;SDS011;7120;52.890;6.040;2023-04-27T05:04:39;20.93;;;9.07;;
14088;SDS011;7120;52.890;6.040;2023-04-27T05:07:05;18.73;;;8.63;;
14088;SDS011;7120;52.890;6.040;2023-04-27T05:09:30;21.87;;;9.13;;
14088;SDS011;7120;52.890;6.040;2023-04-27T05:11:56;17.23;;;8.33;;
14088;SDS011;7120;52.890;6.040;2023-04-27T05:14:21;17.23;;;8.60;;
14088;SDS011;7120;52.890;6.040;2023-04-27T05:16:47;14.13;;;8.17;;
14088;SDS011;7120;52.890;6.040;2023-04-27T05:19:13;19.23;;;8.60;;
14088;SDS011;7120;52.890;6.040;2023-04-27T05:21:42;18.60;;;9.00;;
14088;SDS011;7120;52.890;6.040;2023-04-27T05:24:08;15.20;;;8.17;;
14088;SDS011;7120;52.890;6.040;2023-04-27T05:26:33;19.23;;;9.07;;
14088;SDS011;7120;52.890;6.040;2023-04-27T05:28:59;22.43;;;9.53;;
14088;SDS011;7120;52.890;6.040;2023-04-27T05:31:24;21.13;;;9.07;;
14088;SDS011;7120;52.890;6.040;2023-04-27T05:33:50;17.57;;;8.93;;
14088;SDS011;7120;52.890;6.040;2023-04-27T05:36:15;19.97;;;9.73;;
14088;SDS011;7120;52.890;6.040;2023-04-27T05:38:40;16.20;;;8.40;;
14088;SDS011;7120;52.890;6.040;2023-04-27T05:41:07;19.30;;;9.30;;
14088;SDS011;7120;52.890;6.040;2023-04-27T05:43:32;17.90;;;9.43;;
14088;SDS011;7120;52.890;6.040;2023-04-27T05:45:59;16.87;;;8.90;;
14088;SDS011;7120;52.890;6.040;2023-04-27T05:48:24;16.63;;;8.90;;
14088;SDS011;7120;52.890;6.040;2023-04-27T05:50:57;18.83;;;9.30;;
14088;SDS011;7120;52.890;6.040;2023-04-27T05:53:26;16.90;;;8.90;;
14088;SDS011;7120;52.890;6.040;2023-04-27T05:55:52;17.67;;;9.87;;
14088;SDS011;7120;52.890;6.040;2023-04-27T05:58:17;18.97;;;9.73;;
14088;SDS011;7120;52.890;6.040;2023-04-27T06:00:43;17.30;;;9.50;;
14088;SDS011;7120;52.890;6.040;2023-04-27T06:03:08;17.63;;;9.70;;
14088;SDS011;7120;52.890;6.040;2023-04-27T06:05:33;17.70;;;9.13;;
14088;SDS011;7120;52.890;6.040;2023-04-27T06:07:59;18.03;;;9.67;;
14088;SDS011;7120;52.890;6.040;2023-04-27T06:10:24;17.10;;;9.57;;
14088;SDS011;7120;52.890;6.040;2023-04-27T06:12:50;20.00;;;11.03;;
14088;SDS011;7120;52.890;6.040;2023-04-27T06:15:15;15.63;;;11.57;;
14088;SDS011;7120;52.890;6.040;2023-04-27T06:17:41;21.83;;;18.93;;
14088;SDS011;7120;52.890;6.040;2023-04-27T06:20:08;24.33;;;22.17;;
14088;SDS011;7120;52.890;6.040;2023-04-27T06:22:36;76.60;;;70.77;;
14088;SDS011;7120;52.890;6.040;2023-04-27T06:25:02;178.00;;;166.50;;
14088;SDS011;7120;52.890;6.040;2023-04-27T06:27:29;201.43;;;187.10;;
14088;SDS011;7120;52.890;6.040;2023-04-27T06:29:54;448.87;;;422.53;;
14088;SDS011;7120;52.890;6.040;2023-04-27T06:32:20;482.77;;;454.40;;
14088;SDS011;7120;52.890;6.040;2023-04-27T06:34:45;537.70;;;504.43;;
14088;SDS011;7120;52.890;6.040;2023-04-27T06:37:11;475.80;;;447.07;;
14088;SDS011;7120;52.890;6.040;2023-04-27T06:39:37;600.40;;;563.23;;
14088;SDS011;7120;52.890;6.040;2023-04-27T06:42:02;660.43;;;616.43;;
14088;SDS011;7120;52.890;6.040;2023-04-27T06:44:28;608.23;;;568.47;;
14088;SDS011;7120;52.890;6.040;2023-04-27T06:46:54;658.97;;;616.13;;
14088;SDS011;7120;52.890;6.040;2023-04-27T06:49:20;634.73;;;592.50;;
14088;SDS011;7120;52.890;6.040;2023-04-27T06:51:46;695.57;;;648.77;;
14088;SDS011;7120;52.890;6.040;2023-04-27T06:54:12;608.50;;;571.57;;
14088;SDS011;7120;52.890;6.040;2023-04-27T06:56:38;650.60;;;607.77;;
14088;SDS011;7120;52.890;6.040;2023-04-27T06:59:03;477.03;;;451.80;;
14088;SDS011;7120;52.890;6.040;2023-04-27T07:01:28;346.37;;;329.00;;
14088;SDS011;7120;52.890;6.040;2023-04-27T07:03:54;98.47;;;93.83;;
14088;SDS011;7120;52.890;6.040;2023-04-27T07:06:19;51.33;;;48.73;;
14088;SDS011;7120;52.890;6.040;2023-04-27T07:08:46;12.43;;;11.50;;
14088;SDS011;7120;52.890;6.040;2023-04-27T07:11:11;13.17;;;12.20;;
14088;SDS011;7120;52.890;6.040;2023-04-27T07:13:37;6.07;;;5.50;;
14088;SDS011;7120;52.890;6.040;2023-04-27T07:16:02;8.27;;;4.90;;
14088;SDS011;7120;52.890;6.040;2023-04-27T07:18:28;4.77;;;3.53;;
14088;SDS011;7120;52.890;6.040;2023-04-27T07:20:54;3.77;;;3.20;;
14088;SDS011;7120;52.890;6.040;2023-04-27T07:23:21;6.83;;;3.27;;
14088;SDS011;7120;52.890;6.040;2023-04-27T07:25:47;5.60;;;2.93;;
14088;SDS011;7120;52.890;6.040;2023-04-27T07:28:13;4.33;;;3.00;;
14088;SDS011;7120;52.890;6.040;2023-04-27T07:30:39;3.87;;;2.63;;
14088;SDS011;7120;52.890;6.040;2023-04-27T07:33:05;3.57;;;3.27;;
14088;SDS011;7120;52.890;6.040;2023-04-27T07:35:31;4.47;;;2.73;;
14088;SDS011;7120;52.890;6.040;2023-04-27T07:37:56;4.10;;;2.97;;
14088;SDS011;7120;52.890;6.040;2023-04-27T07:40:22;3.73;;;2.80;;
14088;SDS011;7120;52.890;6.040;2023-04-27T07:42:48;5.93;;;2.27;;
14088;SDS011;7120;52.890;6.040;2023-04-27T07:45:13;3.10;;;2.20;;
14088;SDS011;7120;52.890;6.040;2023-04-27T07:47:41;6.30;;;2.30;;
14088;SDS011;7120;52.890;6.040;2023-04-27T07:50:08;2.43;;;2.23;;
14088;SDS011;7120;52.890;6.040;2023-04-27T07:52:34;6.10;;;2.60;;
14088;SDS011;7120;52.890;6.040;2023-04-27T07:55:00;3.53;;;2.50;;
14088;SDS011;7120;52.890;6.040;2023-04-27T07:57:25;3.90;;;2.83;;
14088;SDS011;7120;52.890;6.040;2023-04-27T07:59:51;4.87;;;2.50;;
14088;SDS011;7120;52.890;6.040;2023-04-27T08:02:17;4.13;;;2.53;;
14088;SDS011;7120;52.890;6.040;2023-04-27T08:04:43;4.13;;;2.73;;
14088;SDS011;7120;52.890;6.040;2023-04-27T08:07:08;3.40;;;3.00;;
14088;SDS011;7120;52.890;6.040;2023-04-27T08:09:33;3.30;;;2.00;;
14088;SDS011;7120;52.890;6.040;2023-04-27T08:11:59;5.20;;;2.80;;
14088;SDS011;7120;52.890;6.040;2023-04-27T08:14:26;2.63;;;2.20;;
14088;SDS011;7120;52.890;6.040;2023-04-27T08:16:52;3.30;;;2.27;;
14088;SDS011;7120;52.890;6.040;2023-04-27T08:19:17;5.43;;;2.87;;
14088;SDS011;7120;52.890;6.040;2023-04-27T08:21:42;4.87;;;3.10;;
14088;SDS011;7120;52.890;6.040;2023-04-27T08:24:08;4.57;;;2.50;;
14088;SDS011;7120;52.890;6.040;2023-04-27T08:26:33;3.93;;;2.40;;
14088;SDS011;7120;52.890;6.040;2023-04-27T08:28:59;3.57;;;2.57;;
14088;SDS011;7120;52.890;6.040;2023-04-27T08:31:26;5.03;;;3.40;;
14088;SDS011;7120;52.890;6.040;2023-04-27T08:33:51;8.03;;;4.40;;
14088;SDS011;7120;52.890;6.040;2023-04-27T08:36:18;9.20;;;6.57;;
14088;SDS011;7120;52.890;6.040;2023-04-27T08:38:45;11.30;;;7.00;;
14088;SDS011;7120;52.890;6.040;2023-04-27T08:41:16;8.30;;;6.10;;
14088;SDS011;7120;52.890;6.040;2023-04-27T08:43:42;9.23;;;5.63;;
14088;SDS011;7120;52.890;6.040;2023-04-27T08:46:08;6.53;;;4.50;;
14088;SDS011;7120;52.890;6.040;2023-04-27T08:48:34;7.87;;;5.30;;
14088;SDS011;7120;52.890;6.040;2023-04-27T08:51:00;8.13;;;6.07;;
14088;SDS011;7120;52.890;6.040;2023-04-27T08:53:27;7.87;;;5.43;;
14088;SDS011;7120;52.890;6.040;2023-04-27T08:55:52;5.47;;;3.97;;
14088;SDS011;7120;52.890;6.040;2023-04-27T08:58:19;6.13;;;4.67;;
14088;SDS011;7120;52.890;6.040;2023-04-27T09:00:45;6.47;;;5.57;;
14088;SDS011;7120;52.890;6.040;2023-04-27T09:03:20;7.13;;;5.17;;
14088;SDS011;7120;52.890;6.040;2023-04-27T09:05:47;7.77;;;5.33;;
14088;SDS011;7120;52.890;6.040;2023-04-27T09:08:13;9.40;;;7.03;;
14088;SDS011;7120;52.890;6.040;2023-04-27T09:10:48;9.30;;;6.87;;
14088;SDS011;7120;52.890;6.040;2023-04-27T09:13:15;9.53;;;6.43;;
14088;SDS011;7120;52.890;6.040;2023-04-27T09:15:42;8.80;;;6.27;;
14088;SDS011;7120;52.890;6.040;2023-04-27T09:18:18;5.93;;;5.00;;
14088;SDS011;7120;52.890;6.040;2023-04-27T09:20:46;4.70;;;3.67;;
14088;SDS011;7120;52.890;6.040;2023-04-27T09:23:25;4.07;;;3.00;;
14088;SDS011;7120;52.890;6.040;2023-04-27T09:25:57;6.63;;;4.03;;
14088;SDS011;7120;52.890;6.040;2023-04-27T09:28:32;6.77;;;4.17;;
14088;SDS011;7120;52.890;6.040;2023-04-27T09:31:02;5.07;;;3.37;;
14088;SDS011;7120;52.890;6.040;2023-04-27T09:33:30;3.93;;;2.63;;
14088;SDS011;7120;52.890;6.040;2023-04-27T09:36:00;7.00;;;3.00;;
14088;SDS011;7120;52.890;6.040;2023-04-27T09:38:28;3.77;;;2.30;;
14088;SDS011;7120;52.890;6.040;2023-04-27T09:40:54;4.07;;;2.40;;
14088;SDS011;7120;52.890;6.040;2023-04-27T09:43:19;3.53;;;2.70;;
14088;SDS011;7120;52.890;6.040;2023-04-27T09:45:45;2.73;;;2.53;;
14088;SDS011;7120;52.890;6.040;2023-04-27T09:48:12;2.87;;;2.37;;
14088;SDS011;7120;52.890;6.040;2023-04-27T09:50:38;3.20;;;2.23;;
14088;SDS011;7120;52.890;6.040;2023-04-27T09:53:06;3.10;;;2.50;;
14088;SDS011;7120;52.890;6.040;2023-04-27T09:55:38;4.07;;;2.40;;
14088;SDS011;7120;52.890;6.040;2023-04-27T10:00:56;3.67;;;2.70;;
14088;SDS011;7120;52.890;6.040;2023-04-27T10:09:02;3.53;;;2.87;;
14088;SDS011;7120;52.890;6.040;2023-04-27T10:11:37;3.70;;;3.20;;
14088;SDS011;7120;52.890;6.040;2023-04-27T10:14:08;3.33;;;2.53;;
14088;SDS011;7120;52.890;6.040;2023-04-27T10:16:38;4.80;;;2.90;;
14088;SDS011;7120;52.890;6.040;2023-04-27T10:19:08;3.93;;;2.60;;
14088;SDS011;7120;52.890;6.040;2023-04-27T10:21:34;3.33;;;2.67;;
14088;SDS011;7120;52.890;6.040;2023-04-27T10:24:05;2.93;;;2.70;;
14088;SDS011;7120;52.890;6.040;2023-04-27T10:26:33;3.13;;;2.60;;
14088;SDS011;7120;52.890;6.040;2023-04-27T10:29:06;5.23;;;3.50;;
14088;SDS011;7120;52.890;6.040;2023-04-27T10:31:33;4.80;;;3.10;;
14088;SDS011;7120;52.890;6.040;2023-04-27T10:34:06;4.20;;;3.17;;
14088;SDS011;7120;52.890;6.040;2023-04-27T10:36:36;3.20;;;2.90;;
14088;SDS011;7120;52.890;6.040;2023-04-27T10:39:12;5.13;;;3.43;;
14088;SDS011;7120;52.890;6.040;2023-04-27T10:41:49;5.80;;;3.53;;
14088;SDS011;7120;52.890;6.040;2023-04-27T10:44:16;4.70;;;3.00;;
14088;SDS011;7120;52.890;6.040;2023-04-27T10:46:52;4.87;;;3.50;;
14088;SDS011;7120;52.890;6.040;2023-04-27T10:49:18;3.87;;;3.17;;
14088;SDS011;7120;52.890;6.040;2023-04-27T10:51:44;6.23;;;3.50;;
14088;SDS011;7120;52.890;6.040;2023-04-27T10:54:10;4.67;;;3.30;;
14088;SDS011;7120;52.890;6.040;2023-04-27T10:56:36;7.90;;;3.97;;
14088;SDS011;7120;52.890;6.040;2023-04-27T10:59:02;6.30;;;4.13;;
14088;SDS011;7120;52.890;6.040;2023-04-27T11:01:30;6.90;;;4.10;;
14088;SDS011;7120;52.890;6.040;2023-04-27T11:03:56;5.23;;;4.00;;
14088;SDS011;7120;52.890;6.040;2023-04-27T11:06:22;4.57;;;3.80;;
14088;SDS011;7120;52.890;6.040;2023-04-27T11:08:48;6.03;;;4.27;;
14088;SDS011;7120;52.890;6.040;2023-04-27T11:11:14;5.20;;;3.77;;
14088;SDS011;7120;52.890;6.040;2023-04-27T11:13:41;4.40;;;3.63;;
14088;SDS011;7120;52.890;6.040;2023-04-27T11:16:07;5.43;;;3.80;;
14088;SDS011;7120;52.890;6.040;2023-04-27T11:18:35;4.30;;;3.70;;
14088;SDS011;7120;52.890;6.040;2023-04-27T11:21:08;4.83;;;3.90;;
14088;SDS011;7120;52.890;6.040;2023-04-27T11:23:38;5.70;;;4.00;;
14088;SDS011;7120;52.890;6.040;2023-04-27T11:26:08;4.80;;;3.30;;
14088;SDS011;7120;52.890;6.040;2023-04-27T11:28:35;7.87;;;7.07;;
14088;SDS011;7120;52.890;6.040;2023-04-27T11:31:00;7.43;;;4.60;;
14088;SDS011;7120;52.890;6.040;2023-04-27T11:33:26;4.97;;;4.30;;
14088;SDS011;7120;52.890;6.040;2023-04-27T11:35:52;6.27;;;4.70;;
14088;SDS011;7120;52.890;6.040;2023-04-27T11:38:18;5.50;;;4.30;;
14088;SDS011;7120;52.890;6.040;2023-04-27T11:40:45;6.80;;;4.33;;
14088;SDS011;7120;52.890;6.040;2023-04-27T11:43:12;8.30;;;5.20;;
14088;SDS011;7120;52.890;6.040;2023-04-27T11:45:41;5.87;;;4.50;;
14088;SDS011;7120;52.890;6.040;2023-04-27T11:48:12;6.70;;;5.17;;
14088;SDS011;7120;52.890;6.040;2023-04-27T11:50:38;7.53;;;4.90;;
14088;SDS011;7120;52.890;6.040;2023-04-27T11:53:04;5.50;;;4.33;;
14088;SDS011;7120;52.890;6.040;2023-04-27T11:55:29;5.87;;;5.00;;
14088;SDS011;7120;52.890;6.040;2023-04-27T11:58:00;5.30;;;4.40;;
14088;SDS011;7120;52.890;6.040;2023-04-27T12:00:25;6.37;;;4.80;;
14088;SDS011;7120;52.890;6.040;2023-04-27T12:02:50;6.53;;;4.47;;
14088;SDS011;7120;52.890;6.040;2023-04-27T12:05:16;5.57;;;4.97;;
14088;SDS011;7120;52.890;6.040;2023-04-27T12:07:42;6.63;;;4.53;;
14088;SDS011;7120;52.890;6.040;2023-04-27T12:10:07;6.27;;;4.83;;
14088;SDS011;7120;52.890;6.040;2023-04-27T12:12:33;7.70;;;4.90;;
14088;SDS011;7120;52.890;6.040;2023-04-27T12:14:58;6.63;;;5.27;;
14088;SDS011;7120;52.890;6.040;2023-04-27T12:17:24;5.97;;;4.67;;
14088;SDS011;7120;52.890;6.040;2023-04-27T12:19:49;6.53;;;5.00;;
14088;SDS011;7120;52.890;6.040;2023-04-27T12:22:15;9.27;;;5.33;;
14088;SDS011;7120;52.890;6.040;2023-04-27T12:24:40;5.30;;;4.47;;
14088;SDS011;7120;52.890;6.040;2023-04-27T12:27:05;5.03;;;4.30;;
14088;SDS011;7120;52.890;6.040;2023-04-27T12:29:31;7.53;;;4.50;;
14088;SDS011;7120;52.890;6.040;2023-04-27T12:32:00;7.23;;;4.87;;
14088;SDS011;7120;52.890;6.040;2023-04-27T12:34:25;6.30;;;4.30;;
14088;SDS011;7120;52.890;6.040;2023-04-27T12:36:51;4.70;;;4.20;;
14088;SDS011;7120;52.890;6.040;2023-04-27T12:39:17;4.47;;;3.90;;
14088;SDS011;7120;52.890;6.040;2023-04-27T12:41:44;4.80;;;4.17;;
14088;SDS011;7120;52.890;6.040;2023-04-27T12:44:11;5.13;;;4.50;;
14088;SDS011;7120;52.890;6.040;2023-04-27T12:46:38;5.23;;;4.53;;
14088;SDS011;7120;52.890;6.040;2023-04-27T12:49:04;7.27;;;4.67;;
14088;SDS011;7120;52.890;6.040;2023-04-27T12:51:30;6.27;;;4.50;;
14088;SDS011;7120;52.890;6.040;2023-04-27T12:53:57;6.00;;;5.00;;
14088;SDS011;7120;52.890;6.040;2023-04-27T12:56:22;5.17;;;4.67;;
14088;SDS011;7120;52.890;6.040;2023-04-27T12:58:48;5.87;;;4.00;;
14088;SDS011;7120;52.890;6.040;2023-04-27T13:01:13;6.13;;;4.77;;
14088;SDS011;7120;52.890;6.040;2023-04-27T13:03:39;5.30;;;4.67;;
14088;SDS011;7120;52.890;6.040;2023-04-27T13:06:05;5.90;;;4.73;;
14088;SDS011;7120;52.890;6.040;2023-04-27T13:08:32;5.70;;;5.00;;
14088;SDS011;7120;52.890;6.040;2023-04-27T13:10:58;5.20;;;4.67;;
14088;SDS011;7120;52.890;6.040;2023-04-27T13:13:24;5.43;;;4.77;;
14088;SDS011;7120;52.890;6.040;2023-04-27T13:15:50;7.27;;;5.17;;
14088;SDS011;7120;52.890;6.040;2023-04-27T13:18:15;7.53;;;5.33;;
14088;SDS011;7120;52.890;6.040;2023-04-27T13:20:40;5.57;;;5.03;;
14088;SDS011;7120;52.890;6.040;2023-04-27T13:23:07;6.47;;;5.00;;
14088;SDS011;7120;52.890;6.040;2023-04-27T13:25:32;7.57;;;5.30;;
14088;SDS011;7120;52.890;6.040;2023-04-27T13:27:58;5.43;;;4.93;;
14088;SDS011;7120;52.890;6.040;2023-04-27T13:30:23;6.83;;;5.47;;
14088;SDS011;7120;52.890;6.040;2023-04-27T13:32:49;5.93;;;5.33;;
14088;SDS011;7120;52.890;6.040;2023-04-27T13:35:14;8.90;;;5.40;;
14088;SDS011;7120;52.890;6.040;2023-04-27T13:37:39;5.20;;;4.70;;
14088;SDS011;7120;52.890;6.040;2023-04-27T13:40:07;6.63;;;4.90;;
14088;SDS011;7120;52.890;6.040;2023-04-27T13:42:35;7.27;;;5.10;;
14088;SDS011;7120;52.890;6.040;2023-04-27T13:45:00;7.37;;;4.70;;
14088;SDS011;7120;52.890;6.040;2023-04-27T13:47:26;6.37;;;4.70;;
14088;SDS011;7120;52.890;6.040;2023-04-27T13:49:53;7.90;;;4.87;;
14088;SDS011;7120;52.890;6.040;2023-04-27T13:52:19;5.57;;;5.00;;
14088;SDS011;7120;52.890;6.040;2023-04-27T13:54:44;5.50;;;4.70;;
14088;SDS011;7120;52.890;6.040;2023-04-27T13:57:09;8.33;;;5.33;;
14088;SDS011;7120;52.890;6.040;2023-04-27T13:59:35;7.73;;;5.33;;
14088;SDS011;7120;52.890;6.040;2023-04-27T14:02:00;6.17;;;5.07;;
14088;SDS011;7120;52.890;6.040;2023-04-27T14:04:26;5.50;;;4.50;;
14088;SDS011;7120;52.890;6.040;2023-04-27T14:06:52;6.63;;;4.60;;
14088;SDS011;7120;52.890;6.040;2023-04-27T14:09:17;6.33;;;4.33;;
14088;SDS011;7120;52.890;6.040;2023-04-27T14:11:42;5.33;;;4.80;;
14088;SDS011;7120;52.890;6.040;2023-04-27T14:14:08;5.53;;;4.60;;
14088;SDS011;7120;52.890;6.040;2023-04-27T14:16:33;6.73;;;4.60;;
14088;SDS011;7120;52.890;6.040;2023-04-27T14:18:59;6.93;;;4.60;;
14088;SDS011;7120;52.890;6.040;2023-04-27T14:21:24;7.17;;;4.90;;
14088;SDS011;7120;52.890;6.040;2023-04-27T14:23:50;5.77;;;4.57;;
14088;SDS011;7120;52.890;6.040;2023-04-27T14:26:15;6.80;;;4.80;;
14088;SDS011;7120;52.890;6.040;2023-04-27T14:28:40;4.77;;;4.37;;
14088;SDS011;7120;52.890;6.040;2023-04-27T14:31:06;6.63;;;4.87;;
14088;SDS011;7120;52.890;6.040;2023-04-27T14:33:31;6.83;;;4.27;;
14088;SDS011;7120;52.890;6.040;2023-04-27T14:35:56;6.00;;;4.70;;
14088;SDS011;7120;52.890;6.040;2023-04-27T14:38:22;6.43;;;4.27;;
14088;SDS011;7120;52.890;6.040;2023-04-27T14:40:47;5.80;;;4.50;;
14088;SDS011;7120;52.890;6.040;2023-04-27T14:43:12;7.10;;;4.73;;
14088;SDS011;7120;52.890;6.040;2023-04-27T14:45:38;5.20;;;4.70;;
14088;SDS011;7120;52.890;6.040;2023-04-27T14:48:03;5.37;;;4.60;;
14088;SDS011;7120;52.890;6.040;2023-04-27T14:50:29;6.33;;;4.93;;
14088;SDS011;7120;52.890;6.040;2023-04-27T14:52:54;5.47;;;4.40;;
14088;SDS011;7120;52.890;6.040;2023-04-27T14:55:22;5.90;;;5.20;;